createdAt,value
2018-08-31T00:01:31.123Z,100248.17
2018-08-31T00:05:47.022Z,100254.88
2018-08-31T00:11:00.767Z,100252.64
2018-08-31T00:15:04.324Z,100254.12
2018-08-31T00:19:07.803Z,100248.88
2018-08-31T00:23:11.311Z,100244.91
2018-08-31T00:27:25.971Z,100248.91
2018-08-31T00:33:43.985Z,100247.61
2018-08-31T00:38:01.668Z,100241.91
2018-08-31T00:43:14.478Z,100242.77
2018-08-31T00:47:18.019Z,100237.37
2018-08-31T00:51:21.734Z,100234.20
2018-08-31T00:55:25.285Z,100238.64
2018-08-31T00:59:28.778Z,100233.70
2018-08-31T01:03:32.259Z,100238.27
2018-08-31T01:07:35.724Z,100234.84
2018-08-31T01:11:39.237Z,100242.84
2018-08-31T01:15:42.667Z,100238.47
2018-08-31T01:19:46.204Z,100231.00
2018-08-31T01:23:49.680Z,100237.64
2018-08-31T01:27:53.293Z,100235.84
2018-08-31T01:31:56.872Z,100241.11
2018-08-31T01:36:00.407Z,100227.77
2018-08-31T01:40:03.929Z,100236.20
2018-08-31T01:44:07.526Z,100241.64
2018-08-31T01:48:11.033Z,100243.02
2018-08-31T01:52:14.541Z,100238.64
2018-08-31T01:56:18.044Z,100238.31
2018-08-31T02:00:21.530Z,100246.04
2018-08-31T02:04:25.065Z,100234.59
2018-08-31T02:08:28.607Z,100239.97
2018-08-31T02:12:32.125Z,100232.03
2018-08-31T02:16:35.595Z,100226.73
2018-08-31T02:20:43.350Z,100230.82
2018-08-31T02:24:46.832Z,100221.59
2018-08-31T02:28:50.306Z,100219.41
2018-08-31T02:32:53.806Z,100220.37
2018-08-31T02:36:57.319Z,100227.14
2018-08-31T02:41:00.820Z,100223.63
2018-08-31T02:45:04.643Z,100217.49
2018-08-31T02:49:08.182Z,100218.89
2018-08-31T02:53:11.714Z,100213.59
2018-08-31T02:57:15.190Z,100222.98
2018-08-31T03:01:18.678Z,100215.94
2018-08-31T03:05:22.181Z,100220.00
2018-08-31T03:09:25.644Z,100213.39
2018-08-31T03:13:29.130Z,100219.59
2018-08-31T03:17:32.624Z,100218.75
2018-08-31T03:21:36.117Z,100221.02
2018-08-31T03:25:39.637Z,100219.25
2018-08-31T03:29:43.139Z,100219.25
2018-08-31T03:33:46.650Z,100217.48
2018-08-31T03:37:50.162Z,100221.97
2018-08-31T03:41:53.676Z,100221.97
2018-08-31T03:45:57.175Z,100216.21
2018-08-31T03:50:00.645Z,100215.75
2018-08-31T03:54:04.166Z,100219.80
2018-08-31T03:58:07.659Z,100225.19
2018-08-31T04:02:11.162Z,100218.19
2018-08-31T04:06:14.646Z,100216.07
2018-08-31T04:10:18.132Z,100230.41
2018-08-31T04:14:21.623Z,100233.50
2018-08-31T04:18:25.169Z,100237.58
2018-08-31T04:22:28.780Z,100242.53
2018-08-31T04:26:32.236Z,100240.87
2018-08-31T04:30:35.808Z,100243.61
2018-08-31T04:34:39.315Z,100243.61
2018-08-31T04:38:42.816Z,100236.55
2018-08-31T04:42:46.307Z,100243.61
2018-08-31T04:46:49.816Z,100242.31
2018-08-31T04:50:53.340Z,100244.57
2018-08-31T04:54:56.843Z,100241.44
2018-08-31T04:59:00.337Z,100246.36
2018-08-31T05:03:03.902Z,100243.27
2018-08-31T05:07:07.453Z,100244.13
2018-08-31T05:11:10.955Z,100243.23
2018-08-31T05:15:14.527Z,100248.05
2018-08-31T05:19:18.010Z,100234.70
2018-08-31T05:23:21.509Z,100234.66
2018-08-31T05:27:24.951Z,100235.87
2018-08-31T05:31:28.572Z,100235.33
2018-08-31T05:35:32.066Z,100235.70
2018-08-31T05:39:35.535Z,100236.48
2018-08-31T05:43:39.042Z,100235.48
2018-08-31T05:47:42.482Z,100239.80
2018-08-31T05:51:45.972Z,100230.34
2018-08-31T05:55:49.463Z,100224.87
2018-08-31T05:59:52.960Z,100232.25
2018-08-31T06:03:56.437Z,100237.36
2018-08-31T06:07:59.909Z,100241.36
2018-08-31T06:12:03.453Z,100247.45
2018-08-31T06:16:06.985Z,100260.56
2018-08-31T06:20:10.435Z,100270.61
2018-08-31T06:24:13.916Z,100267.32
2018-08-31T06:28:17.402Z,100258.66
2018-08-31T06:32:20.929Z,100265.96
2018-08-31T06:36:24.467Z,100263.49
2018-08-31T06:40:27.998Z,100261.02
2018-08-31T06:44:31.603Z,100261.84
2018-08-31T06:48:35.112Z,100249.69
2018-08-31T06:52:38.637Z,100251.86
2018-08-31T06:56:42.152Z,100251.28
2018-08-31T07:00:45.699Z,100249.77
2018-08-31T07:04:49.207Z,100251.25
2018-08-31T07:08:52.667Z,100245.64
2018-08-31T07:12:56.186Z,100238.89
2018-08-31T07:16:59.650Z,100239.68
2018-08-31T07:21:03.429Z,100243.69
2018-08-31T07:25:06.895Z,100240.86
2018-08-31T07:29:10.367Z,100244.72
2018-08-31T07:33:13.879Z,100242.72
2018-08-31T07:37:17.417Z,100243.38
2018-08-31T07:41:21.025Z,100236.70
2018-08-31T07:45:24.544Z,100233.78
2018-08-31T07:49:28.419Z,100239.78
2018-08-31T07:53:32.134Z,100233.28
2018-08-31T07:57:35.642Z,100238.27
2018-08-31T08:01:39.149Z,100244.72
2018-08-31T08:05:43.007Z,100235.91
2018-08-31T08:09:46.425Z,100226.81
2018-08-31T08:13:49.944Z,100220.16
2018-08-31T08:17:53.448Z,100217.03
2018-08-31T08:21:56.952Z,100223.11
2018-08-31T08:26:00.475Z,100225.28
2018-08-31T08:30:03.950Z,100213.63
2018-08-31T08:34:07.426Z,100200.84
2018-08-31T08:38:19.771Z,100199.50
2018-08-31T08:42:23.342Z,100192.52
2018-08-31T08:46:26.807Z,100194.91
2018-08-31T08:50:30.298Z,100205.20
2018-08-31T08:54:33.849Z,100187.16
2018-08-31T08:58:37.357Z,100189.11
2018-08-31T09:02:40.797Z,100197.75
2018-08-31T09:06:44.335Z,100194.41
2018-08-31T09:10:47.843Z,100198.05
2018-08-31T09:14:51.356Z,100196.88
2018-08-31T09:18:54.933Z,100193.86
2018-08-31T09:22:58.419Z,100195.74
2018-08-31T09:27:01.983Z,100185.72
2018-08-31T09:31:09.662Z,100181.57
2018-08-31T09:35:13.174Z,100173.80
2018-08-31T09:39:16.762Z,100174.08
2018-08-31T09:43:20.314Z,100191.83
2018-08-31T09:47:23.823Z,100190.77
2018-08-31T09:51:27.377Z,100190.28
2018-08-31T09:55:30.864Z,100186.35
2018-08-31T09:59:34.357Z,100180.10
2018-08-31T10:03:37.913Z,100171.36
2018-08-31T10:07:41.431Z,100176.88
2018-08-31T10:11:44.910Z,100172.86
2018-08-31T10:15:48.499Z,100176.08
2018-08-31T10:19:52.000Z,100179.13
2018-08-31T10:23:55.478Z,100176.14
2018-08-31T10:27:58.986Z,100167.30
2018-08-31T10:32:04.073Z,100171.27
2018-08-31T10:36:07.558Z,100167.56
2018-08-31T10:40:11.050Z,100165.23
2018-08-31T10:44:14.523Z,100162.95
2018-08-31T10:48:18.025Z,100167.58
2018-08-31T10:52:21.577Z,100161.55
2018-08-31T10:56:25.116Z,100150.43
2018-08-31T11:00:28.614Z,100145.98
2018-08-31T11:04:32.160Z,100146.24
2018-08-31T11:08:35.649Z,100138.66
2018-08-31T11:12:39.317Z,100143.97
2018-08-31T11:16:42.741Z,100138.41
2018-08-31T11:20:46.249Z,100133.64
2018-08-31T11:24:49.792Z,100132.55
2018-08-31T11:28:53.287Z,100125.30
2018-08-31T11:32:56.978Z,100126.62
2018-08-31T11:37:00.584Z,100114.79
2018-08-31T11:41:04.584Z,100118.02
2018-08-31T11:45:08.153Z,100109.83
2018-08-31T11:49:11.689Z,100103.05
2018-08-31T11:53:15.239Z,100098.69
2018-08-31T11:57:18.751Z,100095.18
2018-08-31T12:01:22.309Z,100092.60
2018-08-31T12:05:25.763Z,100088.54
2018-08-31T12:09:29.273Z,100092.41
2018-08-31T12:13:32.985Z,100088.58
2018-08-31T12:17:36.504Z,100072.94
2018-08-31T12:21:40.012Z,100063.65
2018-08-31T12:25:43.542Z,100055.02
2018-08-31T12:29:47.009Z,100058.77
2018-08-31T12:33:50.497Z,100063.19
2018-08-31T12:37:54.032Z,100066.43
2018-08-31T12:41:57.505Z,100065.66
2018-08-31T12:46:01.265Z,100057.67
2018-08-31T12:50:04.731Z,100063.21
2018-08-31T12:54:08.245Z,100060.58
2018-08-31T12:58:11.805Z,100064.09
2018-08-31T13:02:15.314Z,100058.94
2018-08-31T13:06:18.853Z,100058.80
2018-08-31T13:10:22.375Z,100050.45
2018-08-31T13:14:25.970Z,100046.19
2018-08-31T13:18:29.497Z,100044.34
2018-08-31T13:22:33.020Z,100041.13
2018-08-31T13:26:36.509Z,100035.49
2018-08-31T13:30:40.248Z,100029.89
2018-08-31T13:34:43.776Z,100030.12
2018-08-31T13:38:47.265Z,100029.56
2018-08-31T13:42:50.754Z,100025.78
2018-08-31T13:46:54.342Z,100021.19
2018-08-31T13:50:57.818Z,100024.11
2018-08-31T13:55:01.324Z,100031.88
2018-08-31T13:59:05.119Z,100030.91
2018-08-31T14:03:08.643Z,100023.24
2018-08-31T14:07:12.215Z,100025.86
2018-08-31T14:11:15.827Z,100023.87
2018-08-31T14:15:19.419Z,100015.72
2018-08-31T14:19:22.919Z,100012.95
2018-08-31T14:23:26.476Z,100011.83
2018-08-31T14:27:29.971Z,100007.94
2018-08-31T14:31:33.464Z,100016.28
2018-08-31T14:35:37.055Z,100006.78
2018-08-31T14:39:40.691Z,100011.20
2018-08-31T14:43:44.377Z,100010.26
2018-08-31T14:47:47.891Z,100004.09
2018-08-31T14:51:51.403Z,100001.77
2018-08-31T14:55:54.929Z,99995.37
2018-08-31T14:59:58.419Z,99992.75
2018-08-31T15:04:02.553Z,99989.80
2018-08-31T15:08:06.018Z,99984.69
2018-08-31T15:12:09.522Z,99987.38
2018-08-31T15:16:13.045Z,99987.05
2018-08-31T15:20:16.546Z,99981.28
2018-08-31T15:24:20.053Z,99971.45
2018-08-31T15:28:23.527Z,99955.07
2018-08-31T15:32:27.009Z,99956.42
2018-08-31T15:36:30.514Z,99949.28
2018-08-31T15:40:34.035Z,99944.68
2018-08-31T15:44:37.599Z,99941.83
2018-08-31T15:48:41.117Z,99939.92
2018-08-31T15:52:44.579Z,99924.89
2018-08-31T15:57:01.778Z,99936.79
2018-08-31T16:01:05.379Z,99935.03
2018-08-31T16:05:09.199Z,99943.59
2018-08-31T16:09:12.714Z,99950.78
2018-08-31T16:13:16.214Z,99940.42
2018-08-31T16:17:19.698Z,99953.02
2018-08-31T16:21:23.142Z,99948.34
2018-08-31T16:25:26.631Z,99947.78
2018-08-31T16:29:30.130Z,99964.16
2018-08-31T16:33:33.733Z,99960.83
2018-08-31T16:37:37.223Z,99956.25
2018-08-31T16:41:40.731Z,99960.38
2018-08-31T16:45:44.263Z,99957.42
2018-08-31T16:49:47.726Z,99955.30
2018-08-31T16:53:51.202Z,99965.92
2018-08-31T16:57:54.714Z,99957.59
2018-08-31T17:01:58.189Z,99959.20
2018-08-31T17:06:01.728Z,99958.48
2018-08-31T17:10:05.447Z,99960.99
2018-08-31T17:14:08.957Z,99955.58
2018-08-31T17:18:12.467Z,99957.81
2018-08-31T17:22:16.061Z,99955.18
2018-08-31T17:26:24.913Z,99954.52
2018-08-31T17:30:28.389Z,99963.36
2018-08-31T17:34:37.178Z,99956.41
2018-08-31T17:38:40.658Z,99969.44
2018-08-31T17:42:44.137Z,99973.06
2018-08-31T17:46:47.611Z,99963.83
2018-08-31T17:50:51.122Z,99964.97
2018-08-31T17:54:54.562Z,99960.36
2018-08-31T17:58:58.065Z,99960.02
2018-08-31T18:03:01.573Z,99969.91
2018-08-31T18:07:05.064Z,99975.00
2018-08-31T18:11:08.806Z,99982.41
2018-08-31T18:15:12.282Z,99982.64
2018-08-31T18:19:15.756Z,99990.42
2018-08-31T18:23:19.266Z,99983.05
2018-08-31T18:27:22.757Z,99982.31
2018-08-31T18:31:26.246Z,99981.82
2018-08-31T18:35:29.805Z,99986.59
2018-08-31T18:39:33.244Z,99984.39
2018-08-31T18:43:36.844Z,99984.45
2018-08-31T18:47:40.384Z,99981.83
2018-08-31T18:51:43.938Z,99982.58
2018-08-31T18:55:47.605Z,99987.28
2018-08-31T18:59:51.114Z,100002.71
2018-08-31T19:03:54.566Z,100004.05
2018-08-31T19:07:58.936Z,100004.98
2018-08-31T19:12:02.418Z,100004.69
2018-08-31T19:16:06.028Z,99990.66
2018-08-31T19:20:09.513Z,99985.64
2018-08-31T19:24:13.039Z,99982.95
2018-08-31T19:28:16.508Z,99973.81
2018-08-31T19:32:20.016Z,99985.34
2018-08-31T19:36:23.526Z,99976.11
2018-08-31T19:40:27.016Z,99967.70
2018-08-31T19:44:30.538Z,99979.45
2018-08-31T19:48:33.983Z,99979.05
2018-08-31T19:52:37.454Z,99984.89
2018-08-31T19:56:41.041Z,99990.44
2018-08-31T20:00:44.476Z,99990.23
2018-08-31T20:04:48.035Z,99989.02
2018-08-31T20:08:51.592Z,99977.95
2018-08-31T20:12:55.083Z,99976.32
2018-08-31T20:16:58.527Z,99988.93
2018-08-31T20:21:02.013Z,99989.64
2018-08-31T20:25:05.785Z,99998.05
2018-08-31T20:29:09.254Z,100012.58
2018-08-31T20:33:12.745Z,100018.44
2018-08-31T20:37:16.245Z,100024.88
2018-08-31T20:41:19.700Z,100029.42
2018-08-31T20:45:23.385Z,100037.05
2018-08-31T20:49:26.827Z,100048.72
2018-08-31T20:53:30.327Z,100034.32
2018-08-31T20:57:33.822Z,100045.41
2018-08-31T21:01:37.492Z,100045.23
2018-08-31T21:05:41.256Z,100044.01
2018-08-31T21:09:44.738Z,100043.73
2018-08-31T21:13:48.239Z,100039.92
2018-08-31T21:17:51.748Z,100033.34
2018-08-31T21:21:55.261Z,100019.14
2018-08-31T21:25:58.844Z,100016.94
2018-08-31T21:30:02.495Z,100013.08
2018-08-31T21:34:06.027Z,100014.14
2018-08-31T21:38:09.509Z,100012.05
2018-08-31T21:42:13.246Z,100004.53
2018-08-31T21:46:16.650Z,100008.61
2018-08-31T21:50:20.135Z,100007.32
2018-08-31T21:54:23.703Z,99997.55
2018-08-31T21:58:27.163Z,100002.23
2018-08-31T22:02:30.615Z,99998.66
2018-08-31T22:06:34.097Z,99992.55
2018-08-31T22:10:37.606Z,99993.98
2018-08-31T22:14:41.090Z,99993.28
2018-08-31T22:18:44.576Z,100021.97
2018-08-31T22:22:48.058Z,100028.84
2018-08-31T22:26:51.539Z,100014.75
2018-08-31T22:30:55.059Z,100012.99
2018-08-31T22:34:58.584Z,100018.39
2018-08-31T22:39:02.269Z,100024.33
2018-08-31T22:43:06.132Z,100024.80
2018-08-31T22:47:09.577Z,100003.09
2018-08-31T22:51:13.762Z,100003.55
2018-08-31T22:55:17.220Z,99996.52
2018-08-31T22:59:20.704Z,100003.64
2018-08-31T23:03:24.211Z,100003.35
2018-08-31T23:07:33.010Z,99981.95
2018-08-31T23:11:36.511Z,99983.81
2018-08-31T23:15:39.999Z,99986.20
2018-08-31T23:19:43.573Z,99979.28
2018-08-31T23:23:47.907Z,99981.57
2018-08-31T23:27:51.494Z,99973.64
2018-08-31T23:31:54.979Z,99974.17
2018-08-31T23:35:58.450Z,99964.28
2018-08-31T23:40:01.965Z,99954.45
2018-08-31T23:44:05.547Z,99962.52
2018-08-31T23:48:08.996Z,99960.84
2018-08-31T23:52:12.484Z,99975.55
2018-08-31T23:56:15.959Z,99963.15
